Fort Kent Mills, ME (04744)

12:49 AM EDT on July 08, 2015 (GMT -0400)
Apex Wx | | Change Station
CLOSE
Current Station
Personal Weather Station
Location: Fort Kent, ME
Elevation: 541 ft
Nearby Weather Stations

Elev 541 ft 47.25 °N, 68.58 °W | Updated 1 second ago

Overcast
Overcast
70.0 °F
Feels Like 70.0 °F
N
0.0
Wind Variable Wind from South
Gusts 7.0 mph

Today
High -- | Low -- °F
--% Chance of Precip.
Yesterday
High -- | Low -- °F
Precip. -- in
4:46 AM 8:31 PM
Waning Gibbous, 57% visible
Pressure 29.79 in
Visibility 10.0 miles
Clouds Few 1300 ft
Overcast 2100 ft
Dew Point 68 °F
Humidity 93%
Rainfall 0.00 in
Snow Depth Not available.
UV 0 out of 12
Pollen 4.30 out of 12
Air Quality Not available.
Flu Activity Not available.
METAR KFVE 080353Z AUTO 17011KT 10SM FEW013 OVC021 21/19 A2981 RMK AO2 RAE20 SLP087 P0000 T02060189

More Conditions Fewer Conditions

Pressure 29.79 in
Visibility 10.0 miles
Clouds Few 1300 ft
Overcast 2100 ft
Dew Point 68 °F
Humidity 93%
Rainfall 0.00 in
Snow Depth Not available.
UV 0 out of 12
Pollen 4.30 out of 12
Air Quality Not available.
Flu Activity Not available.
METAR KFVE 080353Z AUTO 17011KT 10SM FEW013 OVC021 21/19 A2981 RMK AO2 RAE20 SLP087 P0000 T02060189

More Conditions Fewer Conditions

10-Day Weather Forecast

×

Almanac

Astronomy

Jul. 08, 2015 Rise Set
Actual Time
Civil Twilight
Nautical Twilight
Astronomical Twilight
Moon
Length of Visible Light
Length of Day
Tomorrow will be .
, % of the Moon is Illuminated

Today's Extremes

State Highs State Lows

Community

WunderPhotos

Upload Photos

1,836,057 photos uploaded!

WunderBlogs® & News

Nearby

Air Quality

  Air Quality AQ Index Pollutant
Not available.

Snow Depth

Station Depth Elevation

Earthquake Activity

City Distance Mag. Time & Date
Minimum magnitude displayed is 2.5.

Coastal Water Temperatures

Place Temperature

Stations

Nearby Weather Stations

Station Location Temp. Windchill Dew Point Humidity Wind Precip. Elev Updated Type